sensor_id;sensor_type;location;lat;lon;timestamp;pressure;altitude;pressure_sealevel;temperature;humidity
6423;BME280;3244;42.708;23.288;2023-05-01T00:01:46;95015.13;;;12.95;71.09
6423;BME280;3244;42.708;23.288;2023-05-01T00:04:13;95017.16;;;12.87;71.26
6423;BME280;3244;42.708;23.288;2023-05-01T00:06:41;95021.47;;;12.86;71.47
6423;BME280;3244;42.708;23.288;2023-05-01T00:09:07;95018.91;;;12.86;71.59
6423;BME280;3244;42.708;23.288;2023-05-01T00:11:35;95014.72;;;12.85;72.17
6423;BME280;3244;42.708;23.288;2023-05-01T00:14:02;95018.09;;;12.86;71.73
6423;BME280;3244;42.708;23.288;2023-05-01T00:16:29;95014.97;;;12.79;71.93
6423;BME280;3244;42.708;23.288;2023-05-01T00:18:55;95014.34;;;12.74;72.49
6423;BME280;3244;42.708;23.288;2023-05-01T00:21:22;95018.66;;;12.72;72.04
6423;BME280;3244;42.708;23.288;2023-05-01T00:23:50;95018.91;;;12.66;72.63
6423;BME280;3244;42.708;23.288;2023-05-01T00:26:17;95008.72;;;12.66;72.47
6423;BME280;3244;42.708;23.288;2023-05-01T00:28:44;95018.78;;;12.69;72.46
6423;BME280;3244;42.708;23.288;2023-05-01T00:31:10;95011.41;;;12.63;72.58
6423;BME280;3244;42.708;23.288;2023-05-01T00:33:37;95013.34;;;12.58;72.92
6423;BME280;3244;42.708;23.288;2023-05-01T00:36:05;95032.19;;;12.54;72.72
6423;BME280;3244;42.708;23.288;2023-05-01T00:38:31;95033.91;;;12.53;72.78
6423;BME280;3244;42.708;23.288;2023-05-01T00:41:00;95032.38;;;12.49;72.66
6423;BME280;3244;42.708;23.288;2023-05-01T00:43:26;95037.22;;;12.55;72.52
6423;BME280;3244;42.708;23.288;2023-05-01T00:45:53;95036.75;;;12.66;72.50
6423;BME280;3244;42.708;23.288;2023-05-01T00:48:20;95020.78;;;12.42;72.99
6423;BME280;3244;42.708;23.288;2023-05-01T00:50:48;95037.66;;;12.45;73.14
6423;BME280;3244;42.708;23.288;2023-05-01T00:53:15;95041.28;;;12.39;73.17
6423;BME280;3244;42.708;23.288;2023-05-01T00:55:43;95046.66;;;12.33;72.91
6423;BME280;3244;42.708;23.288;2023-05-01T00:58:12;95044.88;;;12.13;73.59
6423;BME280;3244;42.708;23.288;2023-05-01T01:00:42;95043.50;;;12.06;73.79
6423;BME280;3244;42.708;23.288;2023-05-01T01:03:09;95051.78;;;12.11;73.96
6423;BME280;3244;42.708;23.288;2023-05-01T01:05:40;95049.47;;;12.05;73.87
6423;BME280;3244;42.708;23.288;2023-05-01T01:08:14;95052.72;;;12.09;74.19
6423;BME280;3244;42.708;23.288;2023-05-01T01:10:51;95046.69;;;12.11;74.58
6423;BME280;3244;42.708;23.288;2023-05-01T01:13:27;95045.97;;;12.08;74.30
6423;BME280;3244;42.708;23.288;2023-05-01T01:16:01;95056.75;;;11.92;75.21
6423;BME280;3244;42.708;23.288;2023-05-01T01:18:36;95056.34;;;12.03;75.58
6423;BME280;3244;42.708;23.288;2023-05-01T01:21:07;95052.03;;;12.05;75.84
6423;BME280;3244;42.708;23.288;2023-05-01T01:24:05;95060.56;;;12.04;75.93
6423;BME280;3244;42.708;23.288;2023-05-01T01:27:02;95059.47;;;11.88;76.35
6423;BME280;3244;42.708;23.288;2023-05-01T01:30:05;95066.47;;;11.83;76.18
6423;BME280;3244;42.708;23.288;2023-05-01T01:32:55;95070.22;;;11.73;76.46
6423;BME280;3244;42.708;23.288;2023-05-01T01:35:28;95076.00;;;11.78;76.45
6423;BME280;3244;42.708;23.288;2023-05-01T01:38:01;95073.75;;;11.69;76.97
6423;BME280;3244;42.708;23.288;2023-05-01T01:40:33;95070.91;;;11.78;76.22
6423;BME280;3244;42.708;23.288;2023-05-01T01:43:04;95064.03;;;11.80;76.21
6423;BME280;3244;42.708;23.288;2023-05-01T01:45:36;95066.72;;;11.77;76.12
6423;BME280;3244;42.708;23.288;2023-05-01T01:48:06;95067.63;;;11.74;76.10
6423;BME280;3244;42.708;23.288;2023-05-01T01:50:36;95070.63;;;11.62;76.51
6423;BME280;3244;42.708;23.288;2023-05-01T01:53:06;95059.47;;;11.65;76.59
6423;BME280;3244;42.708;23.288;2023-05-01T01:55:35;95065.47;;;11.64;76.65
6423;BME280;3244;42.708;23.288;2023-05-01T01:58:05;95061.16;;;11.66;76.69
6423;BME280;3244;42.708;23.288;2023-05-01T02:00:32;95064.94;;;11.55;77.18
6423;BME280;3244;42.708;23.288;2023-05-01T02:03:01;95062.63;;;11.49;77.26
6423;BME280;3244;42.708;23.288;2023-05-01T02:05:30;95055.41;;;11.61;76.56
6423;BME280;3244;42.708;23.288;2023-05-01T02:07:59;95057.25;;;11.57;77.13
6423;BME280;3244;42.708;23.288;2023-05-01T02:10:28;95053.09;;;11.54;77.17
6423;BME280;3244;42.708;23.288;2023-05-01T02:12:56;95051.00;;;11.42;77.36
6423;BME280;3244;42.708;23.288;2023-05-01T02:15:25;95051.09;;;11.39;77.26
6423;BME280;3244;42.708;23.288;2023-05-01T02:17:53;95036.41;;;11.24;77.03
6423;BME280;3244;42.708;23.288;2023-05-01T02:20:21;95057.28;;;11.34;77.06
6423;BME280;3244;42.708;23.288;2023-05-01T02:22:49;95050.22;;;11.40;76.84
6423;BME280;3244;42.708;23.288;2023-05-01T02:25:18;95060.34;;;11.42;76.69
6423;BME280;3244;42.708;23.288;2023-05-01T02:27:47;95037.25;;;11.24;77.31
6423;BME280;3244;42.708;23.288;2023-05-01T02:30:16;95047.03;;;11.12;77.94
6423;BME280;3244;42.708;23.288;2023-05-01T02:32:43;95057.69;;;11.21;77.98
6423;BME280;3244;42.708;23.288;2023-05-01T02:35:10;95061.97;;;11.21;77.96
6423;BME280;3244;42.708;23.288;2023-05-01T02:37:37;95058.88;;;11.13;78.18
6423;BME280;3244;42.708;23.288;2023-05-01T02:40:06;95063.84;;;11.16;78.14
6423;BME280;3244;42.708;23.288;2023-05-01T02:42:34;95058.16;;;11.09;78.38
6423;BME280;3244;42.708;23.288;2023-05-01T02:45:05;95058.88;;;11.13;78.33
6423;BME280;3244;42.708;23.288;2023-05-01T02:47:36;95064.22;;;11.05;78.73
6423;BME280;3244;42.708;23.288;2023-05-01T02:50:05;95051.00;;;10.96;78.36
6423;BME280;3244;42.708;23.288;2023-05-01T02:52:33;95059.31;;;11.01;79.05
6423;BME280;3244;42.708;23.288;2023-05-01T02:55:01;95068.47;;;11.05;78.51
6423;BME280;3244;42.708;23.288;2023-05-01T02:57:31;95068.22;;;11.12;78.17
6423;BME280;3244;42.708;23.288;2023-05-01T03:00:00;95061.06;;;10.99;78.49
6423;BME280;3244;42.708;23.288;2023-05-01T03:02:27;95047.44;;;10.76;79.06
6423;BME280;3244;42.708;23.288;2023-05-01T03:04:53;95063.22;;;10.86;78.64
6423;BME280;3244;42.708;23.288;2023-05-01T03:07:20;95060.53;;;10.89;78.16
6423;BME280;3244;42.708;23.288;2023-05-01T03:09:47;95066.41;;;10.91;78.23
6423;BME280;3244;42.708;23.288;2023-05-01T03:12:14;95069.09;;;11.11;78.12
6423;BME280;3244;42.708;23.288;2023-05-01T03:14:41;95078.88;;;11.22;77.70
6423;BME280;3244;42.708;23.288;2023-05-01T03:17:09;95080.31;;;11.06;78.17
6423;BME280;3244;42.708;23.288;2023-05-01T03:19:35;95074.38;;;10.82;79.05
6423;BME280;3244;42.708;23.288;2023-05-01T03:22:02;95077.38;;;10.68;79.97
6423;BME280;3244;42.708;23.288;2023-05-01T03:24:29;95080.34;;;10.81;79.25
6423;BME280;3244;42.708;23.288;2023-05-01T03:26:56;95082.81;;;10.82;79.46
6423;BME280;3244;42.708;23.288;2023-05-01T03:29:23;95078.97;;;10.71;79.72
6423;BME280;3244;42.708;23.288;2023-05-01T03:31:50;95081.66;;;10.66;80.33
6423;BME280;3244;42.708;23.288;2023-05-01T03:34:18;95089.28;;;10.66;80.18
6423;BME280;3244;42.708;23.288;2023-05-01T03:36:45;95090.72;;;10.75;79.58
6423;BME280;3244;42.708;23.288;2023-05-01T03:39:12;95094.91;;;10.76;79.73
6423;BME280;3244;42.708;23.288;2023-05-01T03:41:38;95089.69;;;10.80;79.85
6423;BME280;3244;42.708;23.288;2023-05-01T03:44:05;95090.56;;;10.79;79.98
6423;BME280;3244;42.708;23.288;2023-05-01T03:46:32;95104.28;;;10.99;79.49
6423;BME280;3244;42.708;23.288;2023-05-01T03:48:58;95103.31;;;11.03;79.52
6423;BME280;3244;42.708;23.288;2023-05-01T03:51:27;95097.56;;;11.21;79.28
6423;BME280;3244;42.708;23.288;2023-05-01T03:53:54;95102.22;;;11.10;79.89
6423;BME280;3244;42.708;23.288;2023-05-01T03:56:23;95103.81;;;11.12;80.00
6423;BME280;3244;42.708;23.288;2023-05-01T03:58:50;95112.16;;;11.16;79.98
6423;BME280;3244;42.708;23.288;2023-05-01T04:01:16;95124.56;;;11.25;79.89
6423;BME280;3244;42.708;23.288;2023-05-01T04:03:44;95117.50;;;11.33;79.44
6423;BME280;3244;42.708;23.288;2023-05-01T04:06:11;95117.50;;;11.33;79.41
6423;BME280;3244;42.708;23.288;2023-05-01T04:08:40;95114.34;;;11.50;78.99
6423;BME280;3244;42.708;23.288;2023-05-01T04:11:06;95110.13;;;12.17;77.79
6423;BME280;3244;42.708;23.288;2023-05-01T04:13:33;95107.53;;;13.02;75.64
6423;BME280;3244;42.708;23.288;2023-05-01T04:16:00;95108.59;;;13.93;72.50
6423;BME280;3244;42.708;23.288;2023-05-01T04:18:27;95105.47;;;14.77;68.86
6423;BME280;3244;42.708;23.288;2023-05-01T04:20:53;95102.31;;;15.57;64.22
6423;BME280;3244;42.708;23.288;2023-05-01T04:23:20;95105.47;;;16.25;60.79
6423;BME280;3244;42.708;23.288;2023-05-01T04:25:48;95107.44;;;16.81;58.58
6423;BME280;3244;42.708;23.288;2023-05-01T04:28:15;95109.34;;;17.22;56.95
6423;BME280;3244;42.708;23.288;2023-05-01T04:30:42;95101.00;;;17.61;55.93
6423;BME280;3244;42.708;23.288;2023-05-01T04:33:09;95116.66;;;18.13;54.29
6423;BME280;3244;42.708;23.288;2023-05-01T04:35:36;95108.59;;;18.59;52.85
6423;BME280;3244;42.708;23.288;2023-05-01T04:38:03;95104.25;;;19.26;51.08
6423;BME280;3244;42.708;23.288;2023-05-01T04:40:30;95109.28;;;20.15;48.55
6423;BME280;3244;42.708;23.288;2023-05-01T04:42:58;95106.78;;;21.44;45.79
6423;BME280;3244;42.708;23.288;2023-05-01T04:45:25;95103.56;;;22.40;43.66
6423;BME280;3244;42.708;23.288;2023-05-01T04:47:52;95103.75;;;22.60;42.41
6423;BME280;3244;42.708;23.288;2023-05-01T04:50:19;95106.72;;;22.01;43.16
6423;BME280;3244;42.708;23.288;2023-05-01T04:52:46;95104.53;;;21.39;44.28
6423;BME280;3244;42.708;23.288;2023-05-01T04:55:12;95093.75;;;21.10;45.17
6423;BME280;3244;42.708;23.288;2023-05-01T04:57:39;95107.94;;;20.93;45.81
6423;BME280;3244;42.708;23.288;2023-05-01T05:00:09;95105.28;;;20.71;46.04
6423;BME280;3244;42.708;23.288;2023-05-01T05:02:35;95119.41;;;20.78;46.12
6423;BME280;3244;42.708;23.288;2023-05-01T05:05:02;95114.97;;;20.91;45.61
6423;BME280;3244;42.708;23.288;2023-05-01T05:07:29;95122.91;;;20.77;46.21
6423;BME280;3244;42.708;23.288;2023-05-01T05:09:56;95125.88;;;20.60;46.41
6423;BME280;3244;42.708;23.288;2023-05-01T05:12:22;95132.97;;;20.45;46.80
6423;BME280;3244;42.708;23.288;2023-05-01T05:14:49;95132.50;;;20.27;47.31
6423;BME280;3244;42.708;23.288;2023-05-01T05:17:18;95126.50;;;20.27;47.30
6423;BME280;3244;42.708;23.288;2023-05-01T05:19:45;95139.19;;;20.43;47.17
6423;BME280;3244;42.708;23.288;2023-05-01T05:22:11;95145.44;;;20.75;46.77
6423;BME280;3244;42.708;23.288;2023-05-01T05:24:38;95134.75;;;20.80;46.52
6423;BME280;3244;42.708;23.288;2023-05-01T05:27:05;95148.06;;;21.79;44.78
6423;BME280;3244;42.708;23.288;2023-05-01T05:29:32;95151.00;;;23.37;40.77
6423;BME280;3244;42.708;23.288;2023-05-01T05:31:59;95142.28;;;24.79;37.79
6423;BME280;3244;42.708;23.288;2023-05-01T05:34:27;95134.72;;;26.09;35.70
6423;BME280;3244;42.708;23.288;2023-05-01T05:36:54;95133.25;;;27.76;32.77
6423;BME280;3244;42.708;23.288;2023-05-01T05:39:21;95132.34;;;30.16;29.39
6423;BME280;3244;42.708;23.288;2023-05-01T05:41:48;95135.28;;;32.63;25.77
6423;BME280;3244;42.708;23.288;2023-05-01T05:44:14;95118.69;;;33.97;23.98
6423;BME280;3244;42.708;23.288;2023-05-01T05:46:41;95132.66;;;35.47;22.52
6423;BME280;3244;42.708;23.288;2023-05-01T05:49:08;95129.88;;;36.53;20.92
6423;BME280;3244;42.708;23.288;2023-05-01T05:51:36;95128.72;;;37.18;20.20
6423;BME280;3244;42.708;23.288;2023-05-01T05:54:03;95132.41;;;36.86;20.15
6423;BME280;3244;42.708;23.288;2023-05-01T05:56:29;95134.66;;;35.98;21.07
6423;BME280;3244;42.708;23.288;2023-05-01T05:58:56;95136.88;;;36.14;20.87
6423;BME280;3244;42.708;23.288;2023-05-01T06:01:27;95136.63;;;37.31;19.86
6423;BME280;3244;42.708;23.288;2023-05-01T06:03:53;95133.09;;;38.67;18.65
6423;BME280;3244;42.708;23.288;2023-05-01T06:06:21;95132.69;;;40.06;17.63
6423;BME280;3244;42.708;23.288;2023-05-01T06:08:49;95142.00;;;41.24;16.33
6423;BME280;3244;42.708;23.288;2023-05-01T06:11:16;95137.19;;;42.22;15.61
6423;BME280;3244;42.708;23.288;2023-05-01T06:13:43;95141.19;;;42.85;15.38
6423;BME280;3244;42.708;23.288;2023-05-01T06:16:09;95137.94;;;43.26;15.02
6423;BME280;3244;42.708;23.288;2023-05-01T06:18:36;95150.22;;;43.59;14.86
6423;BME280;3244;42.708;23.288;2023-05-01T06:21:03;95140.34;;;43.28;14.91
6423;BME280;3244;42.708;23.288;2023-05-01T06:23:30;95140.00;;;43.51;15.06
6423;BME280;3244;42.708;23.288;2023-05-01T06:25:59;95138.03;;;42.66;15.37
6423;BME280;3244;42.708;23.288;2023-05-01T06:28:26;95131.13;;;43.19;15.26
6423;BME280;3244;42.708;23.288;2023-05-01T06:30:53;95143.09;;;43.38;15.07
6423;BME280;3244;42.708;23.288;2023-05-01T06:33:20;95138.03;;;43.68;14.63
6423;BME280;3244;42.708;23.288;2023-05-01T06:35:47;95144.84;;;44.23;14.46
6423;BME280;3244;42.708;23.288;2023-05-01T06:38:14;95144.28;;;43.84;14.42
6423;BME280;3244;42.708;23.288;2023-05-01T06:40:40;95146.28;;;43.62;14.78
6423;BME280;3244;42.708;23.288;2023-05-01T06:43:09;95140.00;;;44.20;14.30
6423;BME280;3244;42.708;23.288;2023-05-01T06:45:35;95138.13;;;44.21;14.25
6423;BME280;3244;42.708;23.288;2023-05-01T06:48:04;95140.69;;;44.42;14.28
6423;BME280;3244;42.708;23.288;2023-05-01T06:50:31;95136.03;;;44.80;13.73
6423;BME280;3244;42.708;23.288;2023-05-01T06:52:58;95139.81;;;44.89;14.20
6423;BME280;3244;42.708;23.288;2023-05-01T06:55:27;95144.50;;;45.39;14.12
6423;BME280;3244;42.708;23.288;2023-05-01T06:57:55;95132.16;;;45.79;13.36
6423;BME280;3244;42.708;23.288;2023-05-01T07:00:23;95135.09;;;46.08;13.29
6423;BME280;3244;42.708;23.288;2023-05-01T07:02:50;95145.81;;;45.22;13.61
6423;BME280;3244;42.708;23.288;2023-05-01T07:05:17;95148.25;;;45.28;13.73
6423;BME280;3244;42.708;23.288;2023-05-01T07:07:44;95147.22;;;45.95;13.34
6423;BME280;3244;42.708;23.288;2023-05-01T07:10:11;95143.69;;;46.10;13.30
6423;BME280;3244;42.708;23.288;2023-05-01T07:12:37;95138.72;;;46.58;13.21
6423;BME280;3244;42.708;23.288;2023-05-01T07:15:06;95134.16;;;46.68;12.92
6423;BME280;3244;42.708;23.288;2023-05-01T07:17:34;95149.75;;;46.61;12.46
6423;BME280;3244;42.708;23.288;2023-05-01T07:20:01;95147.47;;;45.89;13.09
6423;BME280;3244;42.708;23.288;2023-05-01T07:22:29;95153.94;;;45.72;13.55
6423;BME280;3244;42.708;23.288;2023-05-01T07:24:56;95153.06;;;45.31;13.96
6423;BME280;3244;42.708;23.288;2023-05-01T07:27:22;95154.53;;;44.34;14.24
6423;BME280;3244;42.708;23.288;2023-05-01T07:29:50;95142.88;;;44.03;14.79
6423;BME280;3244;42.708;23.288;2023-05-01T07:32:16;95148.13;;;44.88;13.97
6423;BME280;3244;42.708;23.288;2023-05-01T07:34:44;95149.63;;;45.61;13.75
6423;BME280;3244;42.708;23.288;2023-05-01T07:37:11;95147.94;;;46.36;13.25
6423;BME280;3244;42.708;23.288;2023-05-01T07:39:38;95152.63;;;46.85;12.80
6423;BME280;3244;42.708;23.288;2023-05-01T07:42:05;95145.31;;;46.96;12.40
6423;BME280;3244;42.708;23.288;2023-05-01T07:44:31;95147.69;;;47.07;12.32
6423;BME280;3244;42.708;23.288;2023-05-01T07:47:01;95142.34;;;46.97;12.47
6423;BME280;3244;42.708;23.288;2023-05-01T07:49:34;95144.56;;;47.29;12.35
6423;BME280;3244;42.708;23.288;2023-05-01T07:52:02;95146.88;;;47.07;12.59
6423;BME280;3244;42.708;23.288;2023-05-01T07:54:29;95140.72;;;48.08;11.67
6423;BME280;3244;42.708;23.288;2023-05-01T07:56:56;95145.31;;;48.08;11.50
6423;BME280;3244;42.708;23.288;2023-05-01T07:59:23;95141.13;;;47.24;12.16
6423;BME280;3244;42.708;23.288;2023-05-01T08:01:50;95137.34;;;47.98;11.93
6423;BME280;3244;42.708;23.288;2023-05-01T08:04:16;95141.53;;;48.09;11.84
6423;BME280;3244;42.708;23.288;2023-05-01T08:06:43;95139.13;;;47.79;11.92
6423;BME280;3244;42.708;23.288;2023-05-01T08:09:11;95136.66;;;48.40;11.60
6423;BME280;3244;42.708;23.288;2023-05-01T08:11:38;95140.59;;;48.24;11.24
6423;BME280;3244;42.708;23.288;2023-05-01T08:14:05;95144.38;;;47.21;11.74
6423;BME280;3244;42.708;23.288;2023-05-01T08:16:32;95142.50;;;45.04;12.96
6423;BME280;3244;42.708;23.288;2023-05-01T08:18:59;95142.59;;;44.47;13.22
6423;BME280;3244;42.708;23.288;2023-05-01T08:21:26;95131.59;;;45.26;12.93
6423;BME280;3244;42.708;23.288;2023-05-01T08:23:54;95135.91;;;46.08;12.67
6423;BME280;3244;42.708;23.288;2023-05-01T08:26:22;95141.06;;;44.71;13.31
6423;BME280;3244;42.708;23.288;2023-05-01T08:28:49;95139.13;;;43.72;13.70
6423;BME280;3244;42.708;23.288;2023-05-01T08:31:16;95135.16;;;43.48;14.06
6423;BME280;3244;42.708;23.288;2023-05-01T08:33:43;95134.59;;;44.62;13.95
6423;BME280;3244;42.708;23.288;2023-05-01T08:36:10;95128.59;;;45.02;13.35
6423;BME280;3244;42.708;23.288;2023-05-01T08:38:37;95131.56;;;46.23;12.36
6423;BME280;3244;42.708;23.288;2023-05-01T08:41:04;95131.88;;;45.40;11.92
6423;BME280;3244;42.708;23.288;2023-05-01T08:43:32;95126.47;;;43.09;13.86
6423;BME280;3244;42.708;23.288;2023-05-01T08:46:00;95116.34;;;42.40;13.96
6423;BME280;3244;42.708;23.288;2023-05-01T08:48:27;95129.50;;;41.41;14.11
6423;BME280;3244;42.708;23.288;2023-05-01T08:50:55;95115.19;;;41.98;14.38
6423;BME280;3244;42.708;23.288;2023-05-01T08:53:24;95123.19;;;42.53;14.07
6423;BME280;3244;42.708;23.288;2023-05-01T08:55:52;95119.00;;;42.84;13.93
6423;BME280;3244;42.708;23.288;2023-05-01T08:58:22;95114.63;;;42.34;14.68
6423;BME280;3244;42.708;23.288;2023-05-01T09:00:52;95122.31;;;38.07;16.94
6423;BME280;3244;42.708;23.288;2023-05-01T09:03:21;95119.47;;;37.34;17.18
6423;BME280;3244;42.708;23.288;2023-05-01T09:05:48;95126.56;;;35.86;19.10
6423;BME280;3244;42.708;23.288;2023-05-01T09:08:15;95118.78;;;36.04;19.03
6423;BME280;3244;42.708;23.288;2023-05-01T09:10:44;95127.16;;;36.66;18.76
6423;BME280;3244;42.708;23.288;2023-05-01T09:13:12;95136.34;;;35.86;18.77
6423;BME280;3244;42.708;23.288;2023-05-01T09:15:39;95124.56;;;33.64;21.37
6423;BME280;3244;42.708;23.288;2023-05-01T09:18:09;95127.69;;;32.09;22.46
6423;BME280;3244;42.708;23.288;2023-05-01T09:20:36;95133.00;;;32.74;22.16
6423;BME280;3244;42.708;23.288;2023-05-01T09:23:04;95125.38;;;32.79;22.18
6423;BME280;3244;42.708;23.288;2023-05-01T09:25:31;95130.06;;;32.04;22.75
6423;BME280;3244;42.708;23.288;2023-05-01T09:27:57;95137.00;;;28.92;26.58
6423;BME280;3244;42.708;23.288;2023-05-01T09:30:32;95126.47;;;28.68;27.57
6423;BME280;3244;42.708;23.288;2023-05-01T09:33:11;95129.72;;;28.62;27.28
6423;BME280;3244;42.708;23.288;2023-05-01T09:35:48;95137.22;;;28.57;27.88
6423;BME280;3244;42.708;23.288;2023-05-01T09:38:20;95134.53;;;27.72;29.47
6423;BME280;3244;42.708;23.288;2023-05-01T09:40:47;95139.06;;;27.27;30.43
6423;BME280;3244;42.708;23.288;2023-05-01T09:43:22;95130.81;;;26.23;32.56
6423;BME280;3244;42.708;23.288;2023-05-01T09:46:00;95132.75;;;25.08;34.34
6423;BME280;3244;42.708;23.288;2023-05-01T09:48:29;95139.94;;;24.57;34.41
6423;BME280;3244;42.708;23.288;2023-05-01T09:50:56;95141.31;;;24.11;34.72
6423;BME280;3244;42.708;23.288;2023-05-01T09:53:35;95135.22;;;23.61;35.62
6423;BME280;3244;42.708;23.288;2023-05-01T09:56:03;95142.78;;;23.11;36.78
6423;BME280;3244;42.708;23.288;2023-05-01T09:58:30;95136.47;;;22.61;38.15
6423;BME280;3244;42.708;23.288;2023-05-01T10:00:57;95135.00;;;22.90;38.75
6423;BME280;3244;42.708;23.288;2023-05-01T10:03:24;95132.78;;;23.06;35.77
6423;BME280;3244;42.708;23.288;2023-05-01T10:05:52;95134.53;;;22.85;37.23
6423;BME280;3244;42.708;23.288;2023-05-01T10:08:21;95129.41;;;22.63;37.38
6423;BME280;3244;42.708;23.288;2023-05-01T10:10:59;95125.13;;;22.73;37.95
6423;BME280;3244;42.708;23.288;2023-05-01T10:13:27;95132.75;;;22.43;36.23
6423;BME280;3244;42.708;23.288;2023-05-01T10:15:54;95129.97;;;22.23;35.98
6423;BME280;3244;42.708;23.288;2023-05-01T10:18:21;95123.28;;;22.21;37.07
6423;BME280;3244;42.708;23.288;2023-05-01T10:20:48;95124.94;;;22.54;40.62
6423;BME280;3244;42.708;23.288;2023-05-01T10:23:17;95120.13;;;22.92;40.67
6423;BME280;3244;42.708;23.288;2023-05-01T10:25:46;95120.28;;;23.53;39.73
6423;BME280;3244;42.708;23.288;2023-05-01T10:28:16;95101.28;;;24.14;38.17
6423;BME280;3244;42.708;23.288;2023-05-01T10:30:44;95111.88;;;24.31;38.09
6423;BME280;3244;42.708;23.288;2023-05-01T10:33:12;95118.88;;;24.50;36.49
6423;BME280;3244;42.708;23.288;2023-05-01T10:35:40;95126.00;;;24.58;36.65
6423;BME280;3244;42.708;23.288;2023-05-01T10:38:14;95105.19;;;24.38;36.37
6423;BME280;3244;42.708;23.288;2023-05-01T10:40:49;95121.31;;;24.32;36.58
6423;BME280;3244;42.708;23.288;2023-05-01T10:43:21;95119.72;;;24.11;36.72
6423;BME280;3244;42.708;23.288;2023-05-01T10:45:51;95101.03;;;24.17;36.31
6423;BME280;3244;42.708;23.288;2023-05-01T10:51:22;95113.56;;;23.71;35.79
6423;BME280;3244;42.708;23.288;2023-05-01T10:56:53;95118.75;;;22.88;35.07
6423;BME280;3244;42.708;23.288;2023-05-01T10:59:20;95122.09;;;22.14;36.29
6423;BME280;3244;42.708;23.288;2023-05-01T11:01:48;95118.91;;;21.65;37.45
6423;BME280;3244;42.708;23.288;2023-05-01T11:04:49;95105.97;;;21.65;38.22
6423;BME280;3244;42.708;23.288;2023-05-01T11:07:21;95104.81;;;21.69;38.95
6423;BME280;3244;42.708;23.288;2023-05-01T11:09:49;95114.19;;;21.82;38.66
6423;BME280;3244;42.708;23.288;2023-05-01T11:12:48;95110.88;;;22.35;37.98
6423;BME280;3244;42.708;23.288;2023-05-01T11:15:27;95101.53;;;22.87;36.14
6423;BME280;3244;42.708;23.288;2023-05-01T11:17:55;95104.09;;;23.40;35.89
6423;BME280;3244;42.708;23.288;2023-05-01T11:20:47;95107.16;;;23.76;35.65
6423;BME280;3244;42.708;23.288;2023-05-01T11:23:18;95114.53;;;23.50;35.17
6423;BME280;3244;42.708;23.288;2023-05-01T11:25:46;95112.44;;;23.23;35.62
6423;BME280;3244;42.708;23.288;2023-05-01T11:28:19;95115.66;;;23.36;34.90
6423;BME280;3244;42.708;23.288;2023-05-01T11:30:49;95116.34;;;22.96;33.32
6423;BME280;3244;42.708;23.288;2023-05-01T11:33:22;95108.66;;;22.74;34.57
6423;BME280;3244;42.708;23.288;2023-05-01T11:35:59;95115.09;;;22.48;34.70
6423;BME280;3244;42.708;23.288;2023-05-01T11:38:26;95118.41;;;22.27;34.75
6423;BME280;3244;42.708;23.288;2023-05-01T11:40:56;95112.81;;;22.11;36.38
6423;BME280;3244;42.708;23.288;2023-05-01T11:43:24;95113.34;;;22.37;36.88
6423;BME280;3244;42.708;23.288;2023-05-01T11:45:52;95101.84;;;22.62;34.78
6423;BME280;3244;42.708;23.288;2023-05-01T11:48:20;95090.50;;;22.74;34.63
6423;BME280;3244;42.708;23.288;2023-05-01T11:50:47;95096.22;;;22.57;34.27
6423;BME280;3244;42.708;23.288;2023-05-01T11:53:15;95110.16;;;22.45;34.88
6423;BME280;3244;42.708;23.288;2023-05-01T11:55:42;95097.63;;;22.18;34.85
6423;BME280;3244;42.708;23.288;2023-05-01T11:58:09;95109.72;;;21.84;35.58
6423;BME280;3244;42.708;23.288;2023-05-01T12:00:38;95099.88;;;21.78;36.11
6423;BME280;3244;42.708;23.288;2023-05-01T12:03:08;95106.22;;;21.73;36.04
6423;BME280;3244;42.708;23.288;2023-05-01T12:05:37;95100.13;;;21.75;35.98
6423;BME280;3244;42.708;23.288;2023-05-01T12:08:09;95095.97;;;21.83;35.95
6423;BME280;3244;42.708;23.288;2023-05-01T12:10:38;95103.63;;;22.07;35.60
6423;BME280;3244;42.708;23.288;2023-05-01T12:13:06;95097.97;;;21.91;35.66
6423;BME280;3244;42.708;23.288;2023-05-01T12:15:35;95102.91;;;21.60;37.17
6423;BME280;3244;42.708;23.288;2023-05-01T12:18:04;95102.53;;;21.31;38.42
6423;BME280;3244;42.708;23.288;2023-05-01T12:20:35;95103.84;;;21.26;38.93
6423;BME280;3244;42.708;23.288;2023-05-01T12:23:03;95114.09;;;21.15;38.17
6423;BME280;3244;42.708;23.288;2023-05-01T12:25:31;95102.47;;;20.74;39.02
6423;BME280;3244;42.708;23.288;2023-05-01T12:27:59;95103.34;;;20.62;39.05
6423;BME280;3244;42.708;23.288;2023-05-01T12:30:27;95102.16;;;20.55;39.35
6423;BME280;3244;42.708;23.288;2023-05-01T12:32:55;95120.78;;;20.47;38.86
6423;BME280;3244;42.708;23.288;2023-05-01T12:35:28;95119.25;;;20.45;38.25
6423;BME280;3244;42.708;23.288;2023-05-01T12:37:55;95118.75;;;20.40;39.98
6423;BME280;3244;42.708;23.288;2023-05-01T12:40:22;95127.34;;;20.27;41.83
6423;BME280;3244;42.708;23.288;2023-05-01T12:42:53;95119.44;;;20.05;42.72
6423;BME280;3244;42.708;23.288;2023-05-01T12:45:21;95118.78;;;20.14;43.29
6423;BME280;3244;42.708;23.288;2023-05-01T12:47:48;95106.69;;;20.27;42.71
6423;BME280;3244;42.708;23.288;2023-05-01T12:50:15;95126.28;;;20.30;42.59
6423;BME280;3244;42.708;23.288;2023-05-01T12:52:43;95122.88;;;20.29;41.64
6423;BME280;3244;42.708;23.288;2023-05-01T12:55:10;95102.47;;;20.26;40.79
6423;BME280;3244;42.708;23.288;2023-05-01T12:57:50;95129.94;;;20.15;41.62
6423;BME280;3244;42.708;23.288;2023-05-01T13:00:18;95104.97;;;20.15;41.49
6423;BME280;3244;42.708;23.288;2023-05-01T13:02:45;95111.34;;;20.22;41.37
6423;BME280;3244;42.708;23.288;2023-05-01T13:05:12;95119.00;;;20.11;40.91
6423;BME280;3244;42.708;23.288;2023-05-01T13:07:38;95120.94;;;20.20;41.33
6423;BME280;3244;42.708;23.288;2023-05-01T13:10:07;95115.69;;;20.22;42.93
6423;BME280;3244;42.708;23.288;2023-05-01T13:12:42;95122.91;;;20.17;43.57
6423;BME280;3244;42.708;23.288;2023-05-01T13:15:18;95120.22;;;20.18;43.80
6423;BME280;3244;42.708;23.288;2023-05-01T13:17:45;95118.91;;;20.13;43.73
6423;BME280;3244;42.708;23.288;2023-05-01T13:20:12;95141.06;;;20.28;43.51
6423;BME280;3244;42.708;23.288;2023-05-01T13:22:40;95135.53;;;20.09;43.13
6423;BME280;3244;42.708;23.288;2023-05-01T13:25:16;95130.41;;;19.96;43.05